sensor_id;sensor_type;location;lat;lon;timestamp;P1;durP1;ratioP1;P2;durP2;ratioP2
73150;SDS011;61354;50.758;6.106;2022-12-01T00:00:56;31.15;;;12.07;;
73150;SDS011;61354;50.758;6.106;2022-12-01T00:03:22;28.23;;;10.75;;
73150;SDS011;61354;50.758;6.106;2022-12-01T00:05:56;26.25;;;11.57;;
73150;SDS011;61354;50.758;6.106;2022-12-01T00:08:25;24.02;;;11.32;;
73150;SDS011;61354;50.758;6.106;2022-12-01T00:10:52;25.50;;;11.60;;
73150;SDS011;61354;50.758;6.106;2022-12-01T00:13:18;29.33;;;11.40;;
73150;SDS011;61354;50.758;6.106;2022-12-01T00:15:43;29.55;;;12.10;;
73150;SDS011;61354;50.758;6.106;2022-12-01T00:18:09;31.85;;;12.23;;
73150;SDS011;61354;50.758;6.106;2022-12-01T00:20:35;26.58;;;12.38;;
73150;SDS011;61354;50.758;6.106;2022-12-01T00:23:00;24.73;;;10.80;;
73150;SDS011;61354;50.758;6.106;2022-12-01T00:25:26;28.20;;;11.65;;
73150;SDS011;61354;50.758;6.106;2022-12-01T00:27:52;25.67;;;12.02;;
73150;SDS011;61354;50.758;6.106;2022-12-01T00:30:19;28.80;;;11.10;;
73150;SDS011;61354;50.758;6.106;2022-12-01T00:32:46;23.23;;;10.43;;
73150;SDS011;61354;50.758;6.106;2022-12-01T00:35:13;25.33;;;11.98;;
73150;SDS011;61354;50.758;6.106;2022-12-01T00:37:40;28.42;;;12.07;;
73150;SDS011;61354;50.758;6.106;2022-12-01T00:40:06;28.63;;;12.52;;
73150;SDS011;61354;50.758;6.106;2022-12-01T00:42:32;30.73;;;13.20;;
73150;SDS011;61354;50.758;6.106;2022-12-01T00:44:58;33.47;;;11.88;;
73150;SDS011;61354;50.758;6.106;2022-12-01T00:47:23;28.98;;;11.25;;
73150;SDS011;61354;50.758;6.106;2022-12-01T00:49:49;28.60;;;11.23;;
73150;SDS011;61354;50.758;6.106;2022-12-01T00:52:16;25.27;;;11.23;;
73150;SDS011;61354;50.758;6.106;2022-12-01T00:54:43;27.33;;;11.93;;
73150;SDS011;61354;50.758;6.106;2022-12-01T00:57:08;30.08;;;12.35;;
73150;SDS011;61354;50.758;6.106;2022-12-01T00:59:34;30.13;;;12.25;;
73150;SDS011;61354;50.758;6.106;2022-12-01T01:02:00;29.00;;;11.27;;
73150;SDS011;61354;50.758;6.106;2022-12-01T01:04:31;29.98;;;12.40;;
73150;SDS011;61354;50.758;6.106;2022-12-01T01:06:57;27.42;;;12.35;;
73150;SDS011;61354;50.758;6.106;2022-12-01T01:09:23;27.25;;;13.13;;
73150;SDS011;61354;50.758;6.106;2022-12-01T01:11:50;29.50;;;12.23;;
73150;SDS011;61354;50.758;6.106;2022-12-01T01:14:16;31.35;;;12.18;;
73150;SDS011;61354;50.758;6.106;2022-12-01T01:16:41;26.05;;;11.98;;
73150;SDS011;61354;50.758;6.106;2022-12-01T01:19:07;30.30;;;11.70;;
73150;SDS011;61354;50.758;6.106;2022-12-01T01:21:32;26.85;;;11.98;;
73150;SDS011;61354;50.758;6.106;2022-12-01T01:23:58;24.92;;;11.05;;
73150;SDS011;61354;50.758;6.106;2022-12-01T01:26:27;27.13;;;11.93;;
73150;SDS011;61354;50.758;6.106;2022-12-01T01:28:55;28.55;;;12.60;;
73150;SDS011;61354;50.758;6.106;2022-12-01T01:31:23;24.98;;;11.35;;
73150;SDS011;61354;50.758;6.106;2022-12-01T01:33:49;26.48;;;11.25;;
73150;SDS011;61354;50.758;6.106;2022-12-01T01:36:16;29.98;;;12.27;;
73150;SDS011;61354;50.758;6.106;2022-12-01T01:38:42;29.98;;;12.18;;
73150;SDS011;61354;50.758;6.106;2022-12-01T01:41:07;28.70;;;11.25;;
73150;SDS011;61354;50.758;6.106;2022-12-01T01:46:05;29.92;;;11.77;;
73150;SDS011;61354;50.758;6.106;2022-12-01T01:48:31;27.50;;;10.85;;
73150;SDS011;61354;50.758;6.106;2022-12-01T01:50:58;23.30;;;10.88;;
73150;SDS011;61354;50.758;6.106;2022-12-01T01:53:24;24.65;;;10.27;;
73150;SDS011;61354;50.758;6.106;2022-12-01T01:55:51;23.63;;;11.77;;
73150;SDS011;61354;50.758;6.106;2022-12-01T01:58:16;26.80;;;10.90;;
73150;SDS011;61354;50.758;6.106;2022-12-01T02:00:42;24.52;;;10.95;;
73150;SDS011;61354;50.758;6.106;2022-12-01T02:03:09;25.67;;;10.45;;
73150;SDS011;61354;50.758;6.106;2022-12-01T02:05:38;25.40;;;10.65;;
73150;SDS011;61354;50.758;6.106;2022-12-01T02:08:05;23.70;;;10.40;;
73150;SDS011;61354;50.758;6.106;2022-12-01T02:10:48;24.30;;;10.73;;
73150;SDS011;61354;50.758;6.106;2022-12-01T02:18:49;25.30;;;10.27;;
73150;SDS011;61354;50.758;6.106;2022-12-01T02:32:14;30.95;;;12.25;;
73150;SDS011;61354;50.758;6.106;2022-12-01T02:37:34;29.95;;;11.38;;
73150;SDS011;61354;50.758;6.106;2022-12-01T02:40:17;28.08;;;11.50;;
73150;SDS011;61354;50.758;6.106;2022-12-01T02:43:09;23.75;;;10.90;;
73150;SDS011;61354;50.758;6.106;2022-12-01T02:51:23;24.38;;;10.73;;
73150;SDS011;61354;50.758;6.106;2022-12-01T02:53:49;29.38;;;11.40;;
73150;SDS011;61354;50.758;6.106;2022-12-01T02:56:14;27.75;;;11.57;;
73150;SDS011;61354;50.758;6.106;2022-12-01T02:58:45;23.17;;;10.93;;
73150;SDS011;61354;50.758;6.106;2022-12-01T03:03:59;29.05;;;12.55;;
73150;SDS011;61354;50.758;6.106;2022-12-01T03:17:10;27.25;;;10.48;;
73150;SDS011;61354;50.758;6.106;2022-12-01T03:19:43;26.88;;;12.00;;
73150;SDS011;61354;50.758;6.106;2022-12-01T03:22:16;30.38;;;12.40;;
73150;SDS011;61354;50.758;6.106;2022-12-01T03:24:56;31.40;;;12.85;;
73150;SDS011;61354;50.758;6.106;2022-12-01T03:27:28;32.35;;;14.02;;
73150;SDS011;61354;50.758;6.106;2022-12-01T03:29:58;29.20;;;11.48;;
73150;SDS011;61354;50.758;6.106;2022-12-01T03:35:10;32.65;;;12.27;;
73150;SDS011;61354;50.758;6.106;2022-12-01T03:37:42;29.02;;;12.80;;
73150;SDS011;61354;50.758;6.106;2022-12-01T03:40:11;33.90;;;11.35;;
73150;SDS011;61354;50.758;6.106;2022-12-01T03:42:46;30.83;;;13.15;;
73150;SDS011;61354;50.758;6.106;2022-12-01T03:45:18;28.85;;;11.32;;
73150;SDS011;61354;50.758;6.106;2022-12-01T03:47:51;32.35;;;12.65;;
73150;SDS011;61354;50.758;6.106;2022-12-01T03:50:17;33.40;;;11.93;;
73150;SDS011;61354;50.758;6.106;2022-12-01T04:00:25;37.60;;;11.80;;
73150;SDS011;61354;50.758;6.106;2022-12-01T04:02:55;32.38;;;12.57;;
73150;SDS011;61354;50.758;6.106;2022-12-01T04:05:22;28.25;;;12.25;;
73150;SDS011;61354;50.758;6.106;2022-12-01T04:07:48;34.90;;;12.05;;
73150;SDS011;61354;50.758;6.106;2022-12-01T04:10:14;37.15;;;13.77;;
73150;SDS011;61354;50.758;6.106;2022-12-01T04:12:39;27.30;;;11.38;;
73150;SDS011;61354;50.758;6.106;2022-12-01T04:15:05;27.58;;;11.68;;
73150;SDS011;61354;50.758;6.106;2022-12-01T04:17:34;29.38;;;12.18;;
73150;SDS011;61354;50.758;6.106;2022-12-01T04:20:00;24.65;;;11.70;;
73150;SDS011;61354;50.758;6.106;2022-12-01T04:22:26;32.38;;;12.27;;
73150;SDS011;61354;50.758;6.106;2022-12-01T04:24:52;30.83;;;12.32;;
73150;SDS011;61354;50.758;6.106;2022-12-01T04:27:18;33.10;;;12.63;;
73150;SDS011;61354;50.758;6.106;2022-12-01T04:29:44;36.42;;;12.93;;
73150;SDS011;61354;50.758;6.106;2022-12-01T04:32:10;34.33;;;12.10;;
73150;SDS011;61354;50.758;6.106;2022-12-01T04:34:35;32.88;;;13.07;;
73150;SDS011;61354;50.758;6.106;2022-12-01T04:37:03;36.95;;;12.18;;
73150;SDS011;61354;50.758;6.106;2022-12-01T04:39:29;35.90;;;13.27;;
73150;SDS011;61354;50.758;6.106;2022-12-01T04:41:55;40.75;;;13.25;;
73150;SDS011;61354;50.758;6.106;2022-12-01T04:44:20;48.67;;;13.48;;
73150;SDS011;61354;50.758;6.106;2022-12-01T04:46:46;28.63;;;12.80;;
73150;SDS011;61354;50.758;6.106;2022-12-01T04:49:11;37.65;;;13.75;;
73150;SDS011;61354;50.758;6.106;2022-12-01T04:51:37;33.00;;;13.18;;
73150;SDS011;61354;50.758;6.106;2022-12-01T04:54:02;36.83;;;12.95;;
73150;SDS011;61354;50.758;6.106;2022-12-01T04:56:30;37.28;;;13.48;;
73150;SDS011;61354;50.758;6.106;2022-12-01T04:58:56;37.85;;;15.05;;
73150;SDS011;61354;50.758;6.106;2022-12-01T05:01:23;42.40;;;14.05;;
73150;SDS011;61354;50.758;6.106;2022-12-01T05:03:48;43.53;;;13.85;;
73150;SDS011;61354;50.758;6.106;2022-12-01T05:06:18;40.65;;;12.32;;
73150;SDS011;61354;50.758;6.106;2022-12-01T05:08:49;38.13;;;13.60;;
73150;SDS011;61354;50.758;6.106;2022-12-01T05:11:15;35.47;;;12.93;;
73150;SDS011;61354;50.758;6.106;2022-12-01T05:13:42;33.15;;;13.20;;
73150;SDS011;61354;50.758;6.106;2022-12-01T05:18:39;36.83;;;13.07;;
73150;SDS011;61354;50.758;6.106;2022-12-01T05:21:05;36.60;;;13.55;;
73150;SDS011;61354;50.758;6.106;2022-12-01T05:23:32;29.60;;;12.18;;
73150;SDS011;61354;50.758;6.106;2022-12-01T05:25:59;30.85;;;12.98;;
73150;SDS011;61354;50.758;6.106;2022-12-01T05:28:25;28.10;;;13.40;;
73150;SDS011;61354;50.758;6.106;2022-12-01T05:30:52;31.83;;;12.10;;
73150;SDS011;61354;50.758;6.106;2022-12-01T05:33:18;34.50;;;13.38;;
73150;SDS011;61354;50.758;6.106;2022-12-01T05:35:45;32.17;;;13.30;;
73150;SDS011;61354;50.758;6.106;2022-12-01T05:38:12;33.67;;;13.20;;
73150;SDS011;61354;50.758;6.106;2022-12-01T05:40:37;32.20;;;12.90;;
73150;SDS011;61354;50.758;6.106;2022-12-01T05:43:03;28.58;;;12.68;;
73150;SDS011;61354;50.758;6.106;2022-12-01T05:45:29;31.00;;;11.90;;
73150;SDS011;61354;50.758;6.106;2022-12-01T05:47:56;32.65;;;13.05;;
73150;SDS011;61354;50.758;6.106;2022-12-01T05:50:22;35.13;;;12.70;;
73150;SDS011;61354;50.758;6.106;2022-12-01T05:52:49;32.25;;;13.77;;
73150;SDS011;61354;50.758;6.106;2022-12-01T05:55:14;28.40;;;12.55;;
73150;SDS011;61354;50.758;6.106;2022-12-01T05:57:40;33.35;;;12.95;;
73150;SDS011;61354;50.758;6.106;2022-12-01T06:00:06;33.38;;;13.20;;
73150;SDS011;61354;50.758;6.106;2022-12-01T06:02:32;32.65;;;12.90;;
73150;SDS011;61354;50.758;6.106;2022-12-01T06:04:57;29.90;;;13.10;;
73150;SDS011;61354;50.758;6.106;2022-12-01T06:07:22;30.63;;;12.45;;
73150;SDS011;61354;50.758;6.106;2022-12-01T06:09:50;38.15;;;13.82;;
73150;SDS011;61354;50.758;6.106;2022-12-01T06:12:16;38.22;;;13.80;;
73150;SDS011;61354;50.758;6.106;2022-12-01T06:14:41;35.83;;;14.30;;
73150;SDS011;61354;50.758;6.106;2022-12-01T06:17:06;39.10;;;13.90;;
73150;SDS011;61354;50.758;6.106;2022-12-01T06:19:32;35.53;;;14.77;;
73150;SDS011;61354;50.758;6.106;2022-12-01T06:21:57;39.92;;;13.98;;
73150;SDS011;61354;50.758;6.106;2022-12-01T06:24:23;36.55;;;13.50;;
73150;SDS011;61354;50.758;6.106;2022-12-01T06:26:48;44.30;;;14.70;;
73150;SDS011;61354;50.758;6.106;2022-12-01T06:29:14;39.72;;;15.40;;
73150;SDS011;61354;50.758;6.106;2022-12-01T06:31:39;42.92;;;14.45;;
73150;SDS011;61354;50.758;6.106;2022-12-01T06:34:05;40.10;;;14.63;;
73150;SDS011;61354;50.758;6.106;2022-12-01T06:36:30;40.42;;;15.05;;
73150;SDS011;61354;50.758;6.106;2022-12-01T06:38:56;33.63;;;13.68;;
73150;SDS011;61354;50.758;6.106;2022-12-01T06:41:21;39.55;;;13.88;;
73150;SDS011;61354;50.758;6.106;2022-12-01T06:43:47;40.63;;;15.48;;
73150;SDS011;61354;50.758;6.106;2022-12-01T06:46:12;42.95;;;14.73;;
73150;SDS011;61354;50.758;6.106;2022-12-01T06:48:37;39.70;;;14.98;;
73150;SDS011;61354;50.758;6.106;2022-12-01T06:51:03;40.22;;;14.73;;
73150;SDS011;61354;50.758;6.106;2022-12-01T06:53:28;38.22;;;15.32;;
73150;SDS011;61354;50.758;6.106;2022-12-01T06:56:01;44.20;;;16.85;;
73150;SDS011;61354;50.758;6.106;2022-12-01T06:58:27;42.30;;;16.48;;
73150;SDS011;61354;50.758;6.106;2022-12-01T07:00:53;42.75;;;16.00;;
73150;SDS011;61354;50.758;6.106;2022-12-01T07:03:18;40.63;;;14.95;;
73150;SDS011;61354;50.758;6.106;2022-12-01T07:05:44;41.33;;;15.18;;
73150;SDS011;61354;50.758;6.106;2022-12-01T07:08:09;33.20;;;14.38;;
73150;SDS011;61354;50.758;6.106;2022-12-01T07:10:36;35.42;;;12.75;;
73150;SDS011;61354;50.758;6.106;2022-12-01T07:13:01;35.20;;;13.10;;
73150;SDS011;61354;50.758;6.106;2022-12-01T07:15:27;36.22;;;13.50;;
73150;SDS011;61354;50.758;6.106;2022-12-01T07:17:52;33.50;;;13.57;;
73150;SDS011;61354;50.758;6.106;2022-12-01T07:20:18;34.45;;;13.50;;
73150;SDS011;61354;50.758;6.106;2022-12-01T07:22:43;33.63;;;13.95;;
73150;SDS011;61354;50.758;6.106;2022-12-01T07:25:09;34.65;;;13.93;;
73150;SDS011;61354;50.758;6.106;2022-12-01T07:27:36;33.40;;;14.20;;
73150;SDS011;61354;50.758;6.106;2022-12-01T07:30:01;31.73;;;13.07;;
73150;SDS011;61354;50.758;6.106;2022-12-01T07:32:27;32.78;;;13.70;;
73150;SDS011;61354;50.758;6.106;2022-12-01T07:34:52;33.88;;;14.82;;
73150;SDS011;61354;50.758;6.106;2022-12-01T07:37:17;30.92;;;14.13;;
73150;SDS011;61354;50.758;6.106;2022-12-01T07:39:43;34.08;;;15.18;;
73150;SDS011;61354;50.758;6.106;2022-12-01T07:42:08;32.05;;;13.85;;
73150;SDS011;61354;50.758;6.106;2022-12-01T07:44:34;32.53;;;13.90;;
73150;SDS011;61354;50.758;6.106;2022-12-01T07:46:59;34.15;;;15.63;;
73150;SDS011;61354;50.758;6.106;2022-12-01T07:49:25;34.50;;;14.27;;
73150;SDS011;61354;50.758;6.106;2022-12-01T07:51:50;36.63;;;14.98;;
73150;SDS011;61354;50.758;6.106;2022-12-01T07:54:15;31.40;;;13.88;;
73150;SDS011;61354;50.758;6.106;2022-12-01T07:59:09;32.13;;;14.25;;
73150;SDS011;61354;50.758;6.106;2022-12-01T08:01:36;34.65;;;13.88;;
73150;SDS011;61354;50.758;6.106;2022-12-01T08:04:02;35.03;;;14.27;;
73150;SDS011;61354;50.758;6.106;2022-12-01T08:06:27;39.38;;;15.82;;
73150;SDS011;61354;50.758;6.106;2022-12-01T08:08:53;41.17;;;17.35;;
73150;SDS011;61354;50.758;6.106;2022-12-01T08:11:20;42.10;;;16.08;;
73150;SDS011;61354;50.758;6.106;2022-12-01T08:13:47;35.42;;;14.23;;
73150;SDS011;61354;50.758;6.106;2022-12-01T08:16:15;40.28;;;15.52;;
73150;SDS011;61354;50.758;6.106;2022-12-01T08:18:42;40.42;;;15.50;;
73150;SDS011;61354;50.758;6.106;2022-12-01T08:21:08;43.58;;;15.23;;
73150;SDS011;61354;50.758;6.106;2022-12-01T08:23:35;36.05;;;13.45;;
73150;SDS011;61354;50.758;6.106;2022-12-01T08:26:05;33.97;;;13.55;;
73150;SDS011;61354;50.758;6.106;2022-12-01T08:28:33;31.85;;;13.98;;
73150;SDS011;61354;50.758;6.106;2022-12-01T08:31:05;38.60;;;14.05;;
73150;SDS011;61354;50.758;6.106;2022-12-01T08:33:36;30.30;;;13.05;;
73150;SDS011;61354;50.758;6.106;2022-12-01T08:36:02;32.15;;;14.05;;
73150;SDS011;61354;50.758;6.106;2022-12-01T08:38:29;31.30;;;13.32;;
73150;SDS011;61354;50.758;6.106;2022-12-01T08:40:58;34.45;;;13.40;;
73150;SDS011;61354;50.758;6.106;2022-12-01T08:43:25;31.33;;;13.63;;
73150;SDS011;61354;50.758;6.106;2022-12-01T08:45:50;27.05;;;11.93;;
73150;SDS011;61354;50.758;6.106;2022-12-01T08:48:16;33.75;;;13.32;;
73150;SDS011;61354;50.758;6.106;2022-12-01T08:50:41;33.72;;;13.48;;
73150;SDS011;61354;50.758;6.106;2022-12-01T08:53:07;34.03;;;12.85;;
73150;SDS011;61354;50.758;6.106;2022-12-01T08:55:32;34.60;;;14.00;;
73150;SDS011;61354;50.758;6.106;2022-12-01T08:57:58;36.47;;;14.85;;
73150;SDS011;61354;50.758;6.106;2022-12-01T09:00:23;37.17;;;14.02;;
73150;SDS011;61354;50.758;6.106;2022-12-01T09:02:49;35.95;;;14.57;;
73150;SDS011;61354;50.758;6.106;2022-12-01T09:05:14;33.25;;;14.10;;
73150;SDS011;61354;50.758;6.106;2022-12-01T09:07:39;35.20;;;15.23;;
73150;SDS011;61354;50.758;6.106;2022-12-01T09:10:07;31.58;;;13.20;;
73150;SDS011;61354;50.758;6.106;2022-12-01T09:12:33;32.00;;;13.38;;
73150;SDS011;61354;50.758;6.106;2022-12-01T09:14:58;34.83;;;14.07;;
73150;SDS011;61354;50.758;6.106;2022-12-01T09:17:24;40.50;;;13.38;;
73150;SDS011;61354;50.758;6.106;2022-12-01T09:19:49;33.53;;;12.90;;
73150;SDS011;61354;50.758;6.106;2022-12-01T09:22:15;30.77;;;12.18;;
73150;SDS011;61354;50.758;6.106;2022-12-01T09:24:40;33.80;;;13.90;;
73150;SDS011;61354;50.758;6.106;2022-12-01T09:27:05;34.88;;;13.88;;
73150;SDS011;61354;50.758;6.106;2022-12-01T09:29:31;38.53;;;14.38;;
73150;SDS011;61354;50.758;6.106;2022-12-01T09:31:57;33.40;;;12.25;;
73150;SDS011;61354;50.758;6.106;2022-12-01T09:34:24;35.60;;;13.05;;
73150;SDS011;61354;50.758;6.106;2022-12-01T09:36:49;33.72;;;12.73;;
73150;SDS011;61354;50.758;6.106;2022-12-01T09:39:19;33.08;;;13.18;;
73150;SDS011;61354;50.758;6.106;2022-12-01T09:41:49;35.05;;;13.52;;
73150;SDS011;61354;50.758;6.106;2022-12-01T09:50:00;28.90;;;11.63;;
73150;SDS011;61354;50.758;6.106;2022-12-01T09:52:52;32.78;;;12.07;;
73150;SDS011;61354;50.758;6.106;2022-12-01T09:55:22;31.77;;;12.40;;
73150;SDS011;61354;50.758;6.106;2022-12-01T09:57:51;26.65;;;11.82;;
73150;SDS011;61354;50.758;6.106;2022-12-01T10:00:20;29.90;;;11.93;;
73150;SDS011;61354;50.758;6.106;2022-12-01T10:06:14;32.28;;;13.65;;
73150;SDS011;61354;50.758;6.106;2022-12-01T10:08:53;29.02;;;12.55;;
73150;SDS011;61354;50.758;6.106;2022-12-01T10:11:33;26.25;;;11.20;;
73150;SDS011;61354;50.758;6.106;2022-12-01T10:14:01;27.58;;;11.85;;
73150;SDS011;61354;50.758;6.106;2022-12-01T10:16:37;29.10;;;12.73;;
73150;SDS011;61354;50.758;6.106;2022-12-01T10:19:19;27.00;;;11.65;;
73150;SDS011;61354;50.758;6.106;2022-12-01T10:22:14;28.40;;;12.95;;
73150;SDS011;61354;50.758;6.106;2022-12-01T10:25:05;36.10;;;14.15;;
73150;SDS011;61354;50.758;6.106;2022-12-01T10:27:42;32.60;;;12.73;;
73150;SDS011;61354;50.758;6.106;2022-12-01T10:30:16;32.80;;;12.02;;
73150;SDS011;61354;50.758;6.106;2022-12-01T10:35:17;30.60;;;12.70;;
73150;SDS011;61354;50.758;6.106;2022-12-01T10:37:44;30.33;;;13.32;;
73150;SDS011;61354;50.758;6.106;2022-12-01T10:40:12;28.90;;;11.32;;
73150;SDS011;61354;50.758;6.106;2022-12-01T10:42:43;29.48;;;13.15;;
73150;SDS011;61354;50.758;6.106;2022-12-01T10:45:13;32.72;;;12.88;;
73150;SDS011;61354;50.758;6.106;2022-12-01T10:48:09;31.42;;;11.07;;
73150;SDS011;61354;50.758;6.106;2022-12-01T10:50:35;31.05;;;12.45;;
73150;SDS011;61354;50.758;6.106;2022-12-01T10:53:02;26.55;;;11.65;;
73150;SDS011;61354;50.758;6.106;2022-12-01T10:55:29;28.75;;;11.63;;
73150;SDS011;61354;50.758;6.106;2022-12-01T10:58:01;32.65;;;12.48;;
73150;SDS011;61354;50.758;6.106;2022-12-01T11:00:35;27.90;;;12.80;;
73150;SDS011;61354;50.758;6.106;2022-12-01T11:03:02;32.28;;;12.77;;
73150;SDS011;61354;50.758;6.106;2022-12-01T11:05:29;35.15;;;13.25;;
73150;SDS011;61354;50.758;6.106;2022-12-01T11:08:00;29.80;;;13.45;;
73150;SDS011;61354;50.758;6.106;2022-12-01T11:10:30;33.05;;;13.50;;
73150;SDS011;61354;50.758;6.106;2022-12-01T11:13:12;30.73;;;13.20;;
73150;SDS011;61354;50.758;6.106;2022-12-01T11:16:03;31.05;;;12.75;;
73150;SDS011;61354;50.758;6.106;2022-12-01T11:18:31;32.92;;;13.48;;
73150;SDS011;61354;50.758;6.106;2022-12-01T11:21:06;37.75;;;13.68;;
73150;SDS011;61354;50.758;6.106;2022-12-01T11:23:37;32.65;;;13.32;;
73150;SDS011;61354;50.758;6.106;2022-12-01T11:26:11;32.90;;;13.32;;
73150;SDS011;61354;50.758;6.106;2022-12-01T11:28:55;37.22;;;14.60;;
73150;SDS011;61354;50.758;6.106;2022-12-01T11:31:33;39.47;;;15.38;;
73150;SDS011;61354;50.758;6.106;2022-12-01T11:34:02;38.25;;;15.30;;
73150;SDS011;61354;50.758;6.106;2022-12-01T11:36:34;39.03;;;15.15;;
73150;SDS011;61354;50.758;6.106;2022-12-01T11:39:03;39.00;;;15.65;;
73150;SDS011;61354;50.758;6.106;2022-12-01T11:41:34;39.80;;;15.32;;
73150;SDS011;61354;50.758;6.106;2022-12-01T11:44:03;40.92;;;16.95;;
73150;SDS011;61354;50.758;6.106;2022-12-01T11:46:36;44.30;;;15.77;;
73150;SDS011;61354;50.758;6.106;2022-12-01T11:49:08;42.85;;;16.80;;
73150;SDS011;61354;50.758;6.106;2022-12-01T11:51:41;37.80;;;15.68;;
73150;SDS011;61354;50.758;6.106;2022-12-01T11:56:42;41.97;;;16.17;;
73150;SDS011;61354;50.758;6.106;2022-12-01T11:59:10;44.78;;;18.15;;
73150;SDS011;61354;50.758;6.106;2022-12-01T12:21:49;49.97;;;17.02;;
73150;SDS011;61354;50.758;6.106;2022-12-01T12:30:29;39.83;;;16.02;;
73150;SDS011;61354;50.758;6.106;2022-12-01T12:36:01;40.05;;;16.10;;
73150;SDS011;61354;50.758;6.106;2022-12-01T12:41:25;45.92;;;17.25;;
73150;SDS011;61354;50.758;6.106;2022-12-01T12:57:20;49.03;;;17.52;;
73150;SDS011;61354;50.758;6.106;2022-12-01T13:00:01;53.88;;;20.05;;
73150;SDS011;61354;50.758;6.106;2022-12-01T13:02:48;49.60;;;18.08;;
73150;SDS011;61354;50.758;6.106;2022-12-01T13:05:19;46.92;;;17.58;;
73150;SDS011;61354;50.758;6.106;2022-12-01T13:08:07;42.72;;;18.20;;
73150;SDS011;61354;50.758;6.106;2022-12-01T13:13:26;38.90;;;16.00;;
73150;SDS011;61354;50.758;6.106;2022-12-01T13:15:59;40.00;;;14.40;;
73150;SDS011;61354;50.758;6.106;2022-12-01T13:21:50;38.13;;;15.52;;
73150;SDS011;61354;50.758;6.106;2022-12-01T13:24:18;38.78;;;14.70;;
73150;SDS011;61354;50.758;6.106;2022-12-01T13:26:55;39.35;;;15.25;;
73150;SDS011;61354;50.758;6.106;2022-12-01T13:29:25;31.75;;;13.45;;
73150;SDS011;61354;50.758;6.106;2022-12-01T13:31:53;37.83;;;15.13;;
73150;SDS011;61354;50.758;6.106;2022-12-01T13:34:20;35.65;;;13.35;;
73150;SDS011;61354;50.758;6.106;2022-12-01T13:36:50;43.20;;;15.43;;
73150;SDS011;61354;50.758;6.106;2022-12-01T13:41:44;42.10;;;16.35;;
73150;SDS011;61354;50.758;6.106;2022-12-01T13:44:21;39.85;;;14.70;;
73150;SDS011;61354;50.758;6.106;2022-12-01T13:47:03;34.83;;;13.20;;
73150;SDS011;61354;50.758;6.106;2022-12-01T13:49:50;32.42;;;13.82;;
73150;SDS011;61354;50.758;6.106;2022-12-01T13:57:30;31.25;;;12.35;;
73150;SDS011;61354;50.758;6.106;2022-12-01T14:02:23;24.52;;;10.82;;
73150;SDS011;61354;50.758;6.106;2022-12-01T14:04:50;29.42;;;12.50;;
73150;SDS011;61354;50.758;6.106;2022-12-01T14:07:18;29.02;;;11.73;;
73150;SDS011;61354;50.758;6.106;2022-12-01T14:09:51;26.92;;;12.70;;
73150;SDS011;61354;50.758;6.106;2022-12-01T14:12:19;29.25;;;12.27;;
73150;SDS011;61354;50.758;6.106;2022-12-01T14:14:59;28.58;;;11.70;;
73150;SDS011;61354;50.758;6.106;2022-12-01T14:17:31;31.52;;;12.85;;
73150;SDS011;61354;50.758;6.106;2022-12-01T14:20:17;30.52;;;12.48;;
73150;SDS011;61354;50.758;6.106;2022-12-01T14:22:46;27.25;;;11.50;;
73150;SDS011;61354;50.758;6.106;2022-12-01T14:27:50;26.60;;;11.82;;
73150;SDS011;61354;50.758;6.106;2022-12-01T14:41:24;25.00;;;11.20;;
73150;SDS011;61354;50.758;6.106;2022-12-01T14:47:07;22.38;;;10.80;;
73150;SDS011;61354;50.758;6.106;2022-12-01T14:49:48;24.45;;;11.48;;
73150;SDS011;61354;50.758;6.106;2022-12-01T14:52:36;25.35;;;10.73;;
73150;SDS011;61354;50.758;6.106;2022-12-01T14:55:04;22.50;;;10.57;;
73150;SDS011;61354;50.758;6.106;2022-12-01T14:57:37;20.20;;;9.65;;
73150;SDS011;61354;50.758;6.106;2022-12-01T15:00:13;22.55;;;10.23;;
73150;SDS011;61354;50.758;6.106;2022-12-01T15:02:56;22.80;;;10.23;;
73150;SDS011;61354;50.758;6.106;2022-12-01T15:05:25;22.35;;;11.25;;
73150;SDS011;61354;50.758;6.106;2022-12-01T15:07:53;21.85;;;9.38;;
73150;SDS011;61354;50.758;6.106;2022-12-01T15:10:24;26.38;;;10.75;;
73150;SDS011;61354;50.758;6.106;2022-12-01T15:12:50;26.25;;;10.38;;
73150;SDS011;61354;50.758;6.106;2022-12-01T15:15:21;22.42;;;10.38;;
73150;SDS011;61354;50.758;6.106;2022-12-01T15:17:48;24.17;;;10.60;;
73150;SDS011;61354;50.758;6.106;2022-12-01T15:22:57;24.85;;;10.48;;
73150;SDS011;61354;50.758;6.106;2022-12-01T15:25:27;25.48;;;10.73;;
73150;SDS011;61354;50.758;6.106;2022-12-01T15:28:31;26.17;;;10.88;;
73150;SDS011;61354;50.758;6.106;2022-12-01T15:30:56;26.75;;;11.32;;
73150;SDS011;61354;50.758;6.106;2022-12-01T15:33:25;24.40;;;11.18;;
73150;SDS011;61354;50.758;6.106;2022-12-01T15:35:56;26.02;;;12.45;;
73150;SDS011;61354;50.758;6.106;2022-12-01T15:38:28;29.77;;;13.30;;
73150;SDS011;61354;50.758;6.106;2022-12-01T15:40:57;23.95;;;11.43;;
73150;SDS011;61354;50.758;6.106;2022-12-01T15:43:26;29.45;;;11.90;;
73150;SDS011;61354;50.758;6.106;2022-12-01T15:46:01;23.23;;;10.93;;
73150;SDS011;61354;50.758;6.106;2022-12-01T15:48:35;26.45;;;11.70;;
73150;SDS011;61354;50.758;6.106;2022-12-01T15:51:08;26.70;;;11.77;;
73150;SDS011;61354;50.758;6.106;2022-12-01T15:53:39;24.83;;;11.48;;
73150;SDS011;61354;50.758;6.106;2022-12-01T15:56:11;25.25;;;10.98;;
73150;SDS011;61354;50.758;6.106;2022-12-01T15:58:42;27.17;;;11.70;;
73150;SDS011;61354;50.758;6.106;2022-12-01T16:01:10;27.98;;;12.48;;
73150;SDS011;61354;50.758;6.106;2022-12-01T16:03:47;26.48;;;12.18;;
73150;SDS011;61354;50.758;6.106;2022-12-01T16:06:16;27.15;;;12.00;;
73150;SDS011;61354;50.758;6.106;2022-12-01T16:09:03;27.50;;;12.50;;
73150;SDS011;61354;50.758;6.106;2022-12-01T16:14:27;29.52;;;12.85;;
73150;SDS011;61354;50.758;6.106;2022-12-01T16:16:52;27.83;;;12.80;;
73150;SDS011;61354;50.758;6.106;2022-12-01T16:19:22;26.63;;;12.05;;
73150;SDS011;61354;50.758;6.106;2022-12-01T16:24:33;29.75;;;13.18;;
73150;SDS011;61354;50.758;6.106;2022-12-01T16:27:05;30.35;;;12.52;;
73150;SDS011;61354;50.758;6.106;2022-12-01T16:34:56;26.80;;;13.15;;
73150;SDS011;61354;50.758;6.106;2022-12-01T16:37:21;29.63;;;12.95;;
73150;SDS011;61354;50.758;6.106;2022-12-01T16:39:47;28.85;;;13.32;;
73150;SDS011;61354;50.758;6.106;2022-12-01T16:42:13;33.20;;;14.50;;
73150;SDS011;61354;50.758;6.106;2022-12-01T16:44:41;32.85;;;15.48;;
73150;SDS011;61354;50.758;6.106;2022-12-01T16:47:12;30.83;;;14.63;;
73150;SDS011;61354;50.758;6.106;2022-12-01T16:49:38;33.25;;;14.13;;
73150;SDS011;61354;50.758;6.106;2022-12-01T16:52:03;34.38;;;14.13;;
73150;SDS011;61354;50.758;6.106;2022-12-01T16:54:29;36.45;;;16.60;;
73150;SDS011;61354;50.758;6.106;2022-12-01T16:56:54;31.55;;;14.75;;
73150;SDS011;61354;50.758;6.106;2022-12-01T16:59:20;33.20;;;14.63;;
73150;SDS011;61354;50.758;6.106;2022-12-01T17:01:45;36.28;;;15.00;;
73150;SDS011;61354;50.758;6.106;2022-12-01T17:04:10;31.60;;;13.35;;
73150;SDS011;61354;50.758;6.106;2022-12-01T17:06:36;36.00;;;15.13;;
73150;SDS011;61354;50.758;6.106;2022-12-01T17:09:02;34.33;;;15.90;;
73150;SDS011;61354;50.758;6.106;2022-12-01T17:11:28;34.90;;;16.23;;
73150;SDS011;61354;50.758;6.106;2022-12-01T17:13:53;29.42;;;14.52;;